Time;durP1;ratioP1;P1;durP2;ratioP2;P2;SDS_P1;SDS_P2;PMS_P1;PMS_P2;Temp;Humidity;BMP_temperature;BMP_pressure;BME280_temperature;BME280_humidity;BME280_pressure;Samples;Min_cycle;Max_cycle;Signal;HPM_P1;HPM_P2
2022/09/04 00:00:00;;;;;;;2.78;1.20;;;16.40;90.50;;;;;;5034674;28;20049;-79
2022/09/04 00:03:02;;;;;;;1.67;0.93;;;16.40;90.40;;;;;;5035128;28;20045;-79
2022/09/04 00:05:40;;;;;;;2.72;0.95;;;16.40;90.30;;;;;;5033755;28;20041;-79
2022/09/04 00:08:30;;;;;;;2.47;1.15;;;16.40;90.30;;;;;;5035598;28;20496;-79
2022/09/04 00:11:03;;;;;;;3.13;1.00;;;16.40;90.30;;;;;;5033834;28;20122;-79
2022/09/04 00:13:56;;;;;;;3.38;1.20;;;16.40;90.50;;;;;;5035153;28;20496;-79
2022/09/04 00:16:44;;;;;;;2.28;1.20;;;16.30;90.70;;;;;;5035043;28;20042;-79
2022/09/04 00:19:38;;;;;;;4.65;1.30;;;16.30;90.50;;;;;;5034181;28;20194;-79
2022/09/04 00:22:27;;;;;;;2.85;1.23;;;16.30;90.70;;;;;;5029700;28;20079;-79
2022/09/04 00:25:04;;;;;;;1.30;1.15;;;16.20;90.60;;;;;;5034025;28;20053;-79
2022/09/04 00:27:42;;;;;;;6.40;1.58;;;16.20;90.60;;;;;;5035093;28;20542;-79
2022/09/04 00:30:12;;;;;;;3.92;1.33;;;16.20;90.50;;;;;;5035280;28;20049;-79
2022/09/04 00:33:07;;;;;;;3.78;1.15;;;16.20;90.60;;;;;;5035120;28;20034;-79
2022/09/04 00:35:39;;;;;;;3.53;1.98;;;16.10;90.70;;;;;;5038964;28;20041;-79
2022/09/04 00:38:26;;;;;;;3.25;1.15;;;16.10;90.80;;;;;;5037986;28;20507;-79
2022/09/04 00:41:03;;;;;;;2.83;1.70;;;16.00;91.00;;;;;;5037289;28;20551;-79
2022/09/04 00:43:28;;;;;;;2.25;1.10;;;16.00;91.20;;;;;;5034114;28;20045;-79
2022/09/04 00:45:57;;;;;;;2.80;1.50;;;16.00;91.10;;;;;;5016673;28;20048;-79
2022/09/04 00:48:29;;;;;;;5.93;1.20;;;15.90;91.20;;;;;;5034945;28;20419;-79
2022/09/04 00:51:36;;;;;;;2.78;1.15;;;15.90;91.30;;;;;;5016819;28;20250;-79
2022/09/04 00:54:47;;;;;;;2.83;1.35;;;15.90;91.40;;;;;;5026519;28;20050;-79
2022/09/04 00:57:50;;;;;;;4.18;1.55;;;15.90;91.50;;;;;;5011292;28;20049;-79
2022/09/04 01:00:18;;;;;;;5.65;1.65;;;15.90;91.10;;;;;;5033223;28;20546;-79
2022/09/04 01:02:55;;;;;;;2.15;1.50;;;15.90;91.00;;;;;;5016562;28;20049;-79
2022/09/04 01:05:58;;;;;;;2.72;1.25;;;15.90;91.00;;;;;;5033698;28;20041;-79
2022/09/04 01:09:04;;;;;;;1.65;1.30;;;15.90;91.40;;;;;;5033982;28;20382;-79
2022/09/04 01:11:36;;;;;;;3.75;1.10;;;15.90;91.40;;;;;;5033921;28;20407;-79
2022/09/04 01:14:13;;;;;;;3.30;1.42;;;15.80;91.30;;;;;;5034285;28;20500;-79
2022/09/04 01:17:26;;;;;;;2.17;1.20;;;15.80;91.50;;;;;;5033586;28;20041;-79
2022/09/04 01:20:19;;;;;;;1.90;1.27;;;15.70;91.90;;;;;;5011384;28;20053;-79
2022/09/04 01:23:03;;;;;;;4.70;1.30;;;15.70;91.60;;;;;;5033793;28;20046;-79
2022/09/04 01:25:59;;;;;;;2.17;1.27;;;15.80;91.80;;;;;;5033655;28;20045;-79
2022/09/04 01:28:43;;;;;;;3.60;1.85;;;15.70;91.60;;;;;;5034293;28;20476;-79
2022/09/04 01:31:43;;;;;;;3.67;1.17;;;15.70;91.60;;;;;;5033508;28;20052;-79
2022/09/04 01:34:27;;;;;;;2.85;1.25;;;15.70;91.70;;;;;;5002311;28;20119;-79
2022/09/04 01:37:34;;;;;;;4.78;1.45;;;15.70;91.90;;;;;;5032210;28;20042;-79
2022/09/04 01:40:22;;;;;;;2.95;1.35;;;15.70;91.80;;;;;;5015724;28;20091;-79
2022/09/04 01:43:01;;;;;;;4.00;1.50;;;15.60;91.80;;;;;;5033765;28;20048;-79
2022/09/04 01:46:14;;;;;;;3.60;1.40;;;15.60;91.90;;;;;;5032097;28;20060;-79
2022/09/04 01:49:11;;;;;;;3.10;1.10;;;15.60;92.10;;;;;;5033963;28;20467;-79
2022/09/04 01:51:51;;;;;;;3.70;1.27;;;15.50;92.00;;;;;;5032987;28;20528;-79
2022/09/04 01:54:36;;;;;;;4.07;1.42;;;15.50;92.00;;;;;;5015848;28;20120;-79
2022/09/04 01:57:27;;;;;;;7.10;2.10;;;15.50;92.20;;;;;;5015329;28;20052;-79
2022/09/04 02:00:10;;;;;;;4.32;1.40;;;15.40;92.60;;;;;;5032139;28;20042;-79
2022/09/04 02:03:05;;;;;;;4.45;1.40;;;15.40;92.40;;;;;;5032731;28;20095;-79
2022/09/04 02:05:54;;;;;;;3.50;1.30;;;15.30;92.60;;;;;;5021483;28;20118;-79
2022/09/04 02:08:48;;;;;;;6.45;1.73;;;15.30;92.90;;;;;;5032280;28;20496;-79
2022/09/04 02:11:21;;;;;;;3.22;1.40;;;15.30;93.40;;;;;;5033732;28;20060;-79
2022/09/04 02:14:14;;;;;;;2.70;1.30;;;15.30;93.40;;;;;;5015768;28;20408;-79
2022/09/04 02:17:07;;;;;;;3.25;1.15;;;15.20;94.20;;;;;;5031690;28;20052;-79
2022/09/04 02:19:42;;;;;;;2.20;1.50;;;15.20;94.50;;;;;;5032254;28;20049;-79
2022/09/04 02:22:36;;;;;;;2.55;1.42;;;15.10;94.80;;;;;;5033734;28;20045;-79
2022/09/04 02:25:39;;;;;;;2.30;1.30;;;15.00;95.30;;;;;;5031992;28;20096;-79
2022/09/04 02:28:20;;;;;;;2.10;1.50;;;15.00;95.90;;;;;;5015779;28;20055;-79
2022/09/04 02:31:19;;;;;;;2.95;1.50;;;14.90;95.80;;;;;;5033608;28;20053;-79
2022/09/04 02:33:53;;;;;;;2.60;1.45;;;14.90;96.20;;;;;;5032739;28;20103;-79
2022/09/04 02:36:50;;;;;;;5.00;1.45;;;14.80;96.40;;;;;;5031582;28;20160;-79
2022/09/04 02:39:18;;;;;;;4.57;1.73;;;14.80;97.30;;;;;;5032233;28;20045;-79
2022/09/04 02:42:10;;;;;;;3.38;1.35;;;14.80;97.20;;;;;;5031988;28;20049;-79
2022/09/04 02:44:51;;;;;;;3.95;1.40;;;14.80;97.40;;;;;;5025336;28;20053;-79
2022/09/04 02:47:25;;;;;;;2.75;1.45;;;14.80;97.90;;;;;;5036183;28;20056;-79
2022/09/04 02:50:10;;;;;;;3.90;1.75;;;14.80;98.00;;;;;;5035927;28;20099;-79
2022/09/04 02:53:09;;;;;;;5.35;1.60;;;14.80;98.40;;;;;;5037304;28;20411;-79
2022/09/04 02:56:08;;;;;;;3.05;1.90;;;14.80;98.50;;;;;;5035787;28;20060;-79
2022/09/04 02:59:06;;;;;;;2.78;1.83;;;14.70;98.20;;;;;;5035509;28;20045;-79
2022/09/04 03:01:52;;;;;;;5.90;2.63;;;14.70;97.70;;;;;;5035899;28;20048;-79
2022/09/04 03:04:48;;;;;;;2.08;1.55;;;14.70;97.90;;;;;;5036015;28;20553;-79
2022/09/04 03:07:17;;;;;;;2.97;2.00;;;14.60;98.30;;;;;;5035710;28;20049;-79
2022/09/04 03:10:07;;;;;;;2.83;1.63;;;14.50;98.40;;;;;;5036683;28;20038;-79
2022/09/04 03:12:58;;;;;;;1.92;1.55;;;14.50;98.90;;;;;;5036258;28;20400;-79
2022/09/04 03:15:54;;;;;;;2.88;1.80;;;14.50;99.10;;;;;;5036595;28;20385;-79
2022/09/04 03:18:54;;;;;;;5.28;1.90;;;14.50;99.50;;;;;;5036723;28;20037;-79
2022/09/04 03:21:46;;;;;;;4.15;1.65;;;14.40;99.70;;;;;;5035500;28;20412;-79
2022/09/04 03:24:12;;;;;;;;;;;14.40;99.30;;;;;;5021734;28;20053;-79
2022/09/04 03:26:49;;;;;;;3.42;1.60;;;14.30;99.80;;;;;;5035419;28;20298;-79
2022/09/04 03:29:42;;;;;;;4.57;1.92;;;14.30;99.50;;;;;;5036193;28;20063;-79
2022/09/04 03:32:19;;;;;;;3.33;1.83;;;14.30;99.50;;;;;;5034913;28;20535;-79
2022/09/04 03:34:54;;;;;;;4.05;1.90;;;14.30;99.90;;;;;;5035223;28;20045;-79
2022/09/04 03:37:48;;;;;;;2.30;1.73;;;14.30;99.90;;;;;;5039764;28;20038;-79
2022/09/04 03:40:41;;;;;;;3.28;2.00;;;14.30;99.90;;;;;;5038570;28;20411;-79
2022/09/04 03:43:38;;;;;;;5.88;1.92;;;14.20;99.90;;;;;;5036426;28;20041;-79
2022/09/04 03:46:22;;;;;;;2.58;1.92;;;14.20;99.90;;;;;;5034610;28;20060;-79
2022/09/04 03:49:00;;;;;;;2.45;1.85;;;14.20;99.90;;;;;;5035141;28;20060;-79
2022/09/04 03:51:43;;;;;;;3.58;1.70;;;14.20;99.90;;;;;;5034885;28;20053;-79
2022/09/04 03:54:27;;;;;;;2.10;1.90;;;14.20;99.90;;;;;;5034703;28;20469;-79
2022/09/04 03:57:02;;;;;;;4.20;2.05;;;14.20;99.90;;;;;;5036124;28;20037;-79
2022/09/04 03:59:46;;;;;;;3.30;1.73;;;14.20;99.90;;;;;;5035484;28;20045;-79
2022/09/04 04:02:46;;;;;;;2.97;1.63;;;14.20;99.90;;;;;;5036227;28;20045;-79
2022/09/04 04:05:37;;;;;;;4.63;1.92;;;14.10;99.90;;;;;;5035689;28;20045;-79
2022/09/04 04:08:12;;;;;;;4.95;2.05;;;14.10;99.90;;;;;;5034947;28;20114;-79
2022/09/04 04:11:15;;;;;;;3.90;1.88;;;14.10;99.90;;;;;;5036293;28;20045;-79
2022/09/04 04:13:56;;;;;;;3.00;1.80;;;14.00;99.90;;;;;;5035771;28;20073;-79
2022/09/04 04:16:30;;;;;;;7.70;2.13;;;14.00;99.90;;;;;;5035318;28;20092;-79
2022/09/04 04:19:27;;;;;;;2.80;2.00;;;13.90;99.90;;;;;;5034558;28;20512;-79
2022/09/04 04:22:05;;;;;;;2.53;1.90;;;13.90;99.90;;;;;;5023581;28;20053;-79
2022/09/04 04:24:53;;;;;;;2.20;1.60;;;13.90;99.90;;;;;;5034961;28;20396;-79
2022/09/04 04:27:34;;;;;;;4.43;2.05;;;13.90;99.90;;;;;;5034215;28;20048;-79
2022/09/04 04:30:08;;;;;;;3.47;1.98;;;13.90;99.90;;;;;;5035431;28;20049;-79
2022/09/04 04:33:07;;;;;;;4.40;2.13;;;13.90;99.90;;;;;;5034626;28;20407;-79
2022/09/04 04:36:12;;;;;;;4.38;2.40;;;13.90;99.90;;;;;;5035361;28;20041;-79
2022/09/04 04:39:08;;;;;;;4.43;2.85;;;13.90;99.90;;;;;;5035042;28;20050;-79
2022/09/04 04:42:04;;;;;;;8.15;4.05;;;13.90;99.90;;;;;;5034520;28;20052;-79
2022/09/04 04:47:53;;;;;;;13.13;6.82;;;13.90;99.90;;;;;;5035028;28;20043;-79
2022/09/04 04:50:52;;;;;;;16.67;8.95;;;13.90;99.90;;;;;;5035279;28;20124;-79
2022/09/04 04:53:23;;;;;;;35.28;14.48;;;13.90;99.90;;;;;;5034538;28;20395;-79
2022/09/04 04:56:13;;;;;;;34.42;13.10;;;13.80;99.90;;;;;;5034682;28;20117;-79
2022/09/04 04:59:19;;;;;;;27.48;11.43;;;13.90;99.90;;;;;;5034780;28;20073;-79
2022/09/04 05:02:22;;;;;;;26.20;9.98;;;13.90;99.90;;;;;;5033321;28;20064;-79
2022/09/04 05:04:56;;;;;;;25.77;7.80;;;14.00;99.90;;;;;;5032579;28;20111;-79
2022/09/04 05:07:40;;;;;;;22.52;7.25;;;13.90;99.90;;;;;;5033597;28;20057;-79
2022/09/04 05:10:29;;;;;;;19.55;6.80;;;14.00;99.90;;;;;;5034521;28;20498;-79
2022/09/04 05:13:24;;;;;;;11.50;4.32;;;14.00;99.90;;;;;;5034305;28;20075;-79
2022/09/04 05:16:17;;;;;;;12.02;3.55;;;13.90;99.90;;;;;;5033697;28;20049;-79
2022/09/04 05:19:12;;;;;;;6.38;3.50;;;14.00;99.90;;;;;;5034390;28;20033;-79
2022/09/04 05:22:16;;;;;;;4.47;3.20;;;14.00;99.90;;;;;;5016666;28;20096;-79
2022/09/04 05:25:02;;;;;;;9.85;3.78;;;14.10;99.90;;;;;;5032238;28;20040;-79
2022/09/04 05:27:45;;;;;;;7.85;3.60;;;14.10;99.90;;;;;;5032477;28;20135;-79
2022/09/04 05:30:50;;;;;;;10.77;3.80;;;14.20;99.90;;;;;;5015813;28;20534;-79
2022/09/04 05:33:40;;;;;;;6.90;3.28;;;14.20;99.90;;;;;;5032909;28;20408;-79
2022/09/04 05:36:31;;;;;;;13.00;4.75;;;14.20;99.90;;;;;;5016265;28;20050;-79
2022/09/04 05:39:30;;;;;;;7.03;3.92;;;14.40;99.90;;;;;;5033682;28;20044;-79
2022/09/04 05:42:11;;;;;;;9.93;3.30;;;14.40;99.90;;;;;;5033489;28;20063;-79
2022/09/04 05:44:53;;;;;;;7.60;3.60;;;14.50;99.90;;;;;;5033868;28;20105;-79
2022/09/04 05:47:22;;;;;;;10.63;3.13;;;14.60;99.90;;;;;;5032553;28;20045;-79
2022/09/04 05:50:11;;;;;;;6.25;2.83;;;14.60;99.90;;;;;;5034052;28;20045;-79
2022/09/04 05:53:02;;;;;;;3.83;2.45;;;14.70;99.90;;;;;;5033375;28;20661;-79
2022/09/04 05:55:44;;;;;;;4.68;3.10;;;14.70;99.90;;;;;;5033057;28;20069;-79
2022/09/04 05:58:47;;;;;;;5.40;2.60;;;14.80;99.90;;;;;;5033443;28;20041;-79
2022/09/04 06:01:22;;;;;;;11.15;2.92;;;14.90;99.90;;;;;;5020049;28;20494;-79
2022/09/04 06:04:20;;;;;;;7.47;2.70;;;15.00;99.90;;;;;;5033518;28;20098;-79
2022/09/04 06:07:08;;;;;;;5.78;2.40;;;15.10;99.90;;;;;;5033263;28;20395;-79
2022/09/04 06:09:55;;;;;;;4.53;2.80;;;15.10;99.90;;;;;;5032022;28;20041;-79
2022/09/04 06:12:44;;;;;;;7.40;2.75;;;15.20;99.90;;;;;;5031748;28;20042;-79
2022/09/04 06:15:18;;;;;;;4.63;2.63;;;15.30;99.90;;;;;;5021331;28;20060;-79
2022/09/04 06:18:05;;;;;;;5.32;2.22;;;15.30;99.90;;;;;;5032308;28;20049;-79
2022/09/04 06:20:36;;;;;;;6.43;2.55;;;15.40;99.90;;;;;;5032725;28;20171;-78
2022/09/04 06:23:04;;;;;;;3.80;2.20;;;15.40;99.90;;;;;;5030903;28;20055;-79
2022/09/04 06:25:45;;;;;;;6.57;2.63;;;15.40;99.90;;;;;;5015015;28;20121;-79
2022/09/04 06:28:11;;;;;;;7.72;2.35;;;15.50;99.90;;;;;;5017096;28;20050;-79
2022/09/04 06:31:07;;;;;;;6.28;2.45;;;15.50;99.90;;;;;;5033648;28;20384;-79
2022/09/04 06:33:33;;;;;;;7.43;2.67;;;15.60;99.90;;;;;;5031607;28;20099;-79
2022/09/04 06:36:07;;;;;;;5.57;2.85;;;15.60;99.90;;;;;;5032560;28;20041;-79
2022/09/04 06:39:06;;;;;;;5.90;2.22;;;15.60;99.90;;;;;;5039124;28;20049;-79
2022/09/04 06:41:35;;;;;;;4.35;2.60;;;15.70;99.90;;;;;;5033416;28;20107;-79
2022/09/04 06:44:17;;;;;;;5.35;2.38;;;15.70;99.90;;;;;;5032195;28;20457;-79
2022/09/04 06:47:03;;;;;;;5.30;2.42;;;15.80;99.90;;;;;;5015089;28;20041;-79
2022/09/04 06:49:43;;;;;;;3.97;2.17;;;15.90;99.90;;;;;;5031133;28;20084;-79
2022/09/04 06:52:29;;;;;;;6.15;2.22;;;15.90;99.90;;;;;;5032923;28;20141;-79
2022/09/04 06:54:59;;;;;;;6.32;2.50;;;16.00;99.90;;;;;;5031381;28;20535;-79
2022/09/04 06:57:47;;;;;;;5.30;2.88;;;16.00;99.90;;;;;;5031092;28;20049;-79
2022/09/04 07:00:17;;;;;;;5.85;3.83;;;16.10;99.90;;;;;;5032344;28;20080;-79
2022/09/04 07:02:55;;;;;;;4.35;2.38;;;16.20;99.90;;;;;;5031220;28;20101;-79
2022/09/04 07:05:29;;;;;;;4.18;2.38;;;16.30;99.90;;;;;;5031941;28;20049;-79
2022/09/04 07:08:01;;;;;;;7.38;2.72;;;16.40;99.90;;;;;;5032301;28;20048;-79
2022/09/04 07:10:57;;;;;;;3.97;2.28;;;16.50;99.90;;;;;;5014306;28;20064;-79
2022/09/04 07:14:06;;;;;;;4.32;2.72;;;16.70;99.90;;;;;;5032677;28;20069;-79
2022/09/04 07:16:44;;;;;;;7.38;2.55;;;17.10;99.90;;;;;;5032216;28;20037;-79
2022/09/04 07:19:53;;;;;;;6.15;2.83;;;18.00;99.90;;;;;;5031513;28;20053;-79
2022/09/04 07:22:48;;;;;;;3.38;2.00;;;18.80;99.90;;;;;;5033190;28;20053;-79
2022/09/04 07:25:52;;;;;;;4.38;2.50;;;19.80;99.90;;;;;;5031219;28;20488;-83
2022/09/04 07:28:40;;;;;;;7.75;2.63;;;20.50;98.30;;;;;;4999612;28;20049;-83
2022/09/04 07:31:19;;;;;;;4.05;2.55;;;21.10;95.30;;;;;;5033238;28;20434;-83
2022/09/04 07:33:59;;;;;;;3.63;2.20;;;21.60;96.60;;;;;;5018155;28;20045;-84
2022/09/04 07:36:40;;;;;;;6.85;2.65;;;22.00;94.70;;;;;;5033420;28;20041;-76
2022/09/04 07:39:36;;;;;;;5.05;2.70;;;22.40;93.90;;;;;;5033840;28;20128;-75
2022/09/04 07:42:10;;;;;;;5.80;2.80;;;22.80;91.10;;;;;;5033266;28;20469;-76
2022/09/04 07:45:01;;;;;;;5.35;2.33;;;23.10;92.40;;;;;;5033455;28;20048;-82
2022/09/04 07:47:45;;;;;;;2.17;1.88;;;23.30;87.60;;;;;;5016901;28;20064;-81
2022/09/04 07:50:23;;;;;;;3.35;2.40;;;23.60;85.30;;;;;;5016446;28;20038;-81
2022/09/04 07:53:03;;;;;;;5.30;2.22;;;23.80;85.80;;;;;;5032866;28;20041;-82
2022/09/04 07:55:45;;;;;;;6.05;2.08;;;24.00;84.00;;;;;;5032810;28;20037;-82
2022/09/04 07:58:42;;;;;;;6.00;2.58;;;24.20;81.60;;;;;;5016020;28;20041;-82
2022/09/04 08:01:31;;;;;;;3.28;2.03;;;24.40;73.80;;;;;;5016965;28;20164;-82
2022/09/04 08:04:08;;;;;;;3.05;2.20;;;24.50;77.70;;;;;;5032771;28;20045;-82
2022/09/04 08:06:49;;;;;;;3.50;2.20;;;24.70;74.80;;;;;;5016093;28;20041;-82
2022/09/04 08:09:27;;;;;;;5.33;2.07;;;24.70;75.90;;;;;;5016316;28;20131;-83
2022/09/04 08:12:24;;;;;;;5.80;2.20;;;24.80;72.60;;;;;;5032461;28;20048;-82
2022/09/04 08:15:09;;;;;;;3.47;2.35;;;24.80;73.60;;;;;;5002983;28;20053;-83
2022/09/04 08:18:03;;;;;;;5.32;2.00;;;25.00;73.50;;;;;;5015907;28;20045;-82
2022/09/04 08:20:54;;;;;;;4.20;2.40;;;25.10;70.20;;;;;;5016121;28;20044;-82
2022/09/04 08:23:55;;;;;;;5.73;2.10;;;25.20;69.70;;;;;;5016178;28;20067;-83
2022/09/04 08:26:45;;;;;;;4.68;2.40;;;25.30;69.20;;;;;;5015563;28;20280;-83
2022/09/04 08:29:16;;;;;;;4.15;2.00;;;25.40;67.20;;;;;;5016251;28;20053;-83
2022/09/04 08:32:03;;;;;;;3.78;2.60;;;25.50;70.20;;;;;;5015958;28;20042;-83
2022/09/04 08:34:41;;;;;;;4.10;2.30;;;25.60;69.50;;;;;;5016396;28;20049;-83
2022/09/04 08:37:45;;;;;;;2.58;2.17;;;25.80;70.00;;;;;;5015759;28;20044;-83
2022/09/04 08:40:48;;;;;;;3.97;2.30;;;25.90;68.60;;;;;;4972705;28;20049;-83
2022/09/04 08:43:33;;;;;;;3.85;2.30;;;26.00;67.10;;;;;;5016186;28;20053;-82
2022/09/04 08:46:26;;;;;;;2.83;1.95;;;26.10;65.90;;;;;;5015605;28;20048;-83
2022/09/04 08:49:23;;;;;;;4.72;2.33;;;25.90;66.30;;;;;;5017641;28;20038;-83
2022/09/04 08:52:17;;;;;;;3.80;2.20;;;25.80;67.10;;;;;;5018876;28;20454;-84
2022/09/04 08:55:21;;;;;;;3.25;2.28;;;26.10;66.50;;;;;;5014573;28;20527;-81
2022/09/04 08:58:10;;;;;;;5.65;2.50;;;26.20;65.70;;;;;;4987938;28;20056;-83
2022/09/04 09:01:13;;;;;;;5.25;2.40;;;26.30;66.40;;;;;;5016716;28;20068;-84
2022/09/04 09:04:02;;;;;;;3.63;2.72;;;26.40;65.40;;;;;;5015720;28;20045;-82
2022/09/04 09:06:49;;;;;;;3.63;2.45;;;26.70;65.90;;;;;;5031696;28;20049;-83
2022/09/04 09:09:32;;;;;;;4.43;2.70;;;26.80;65.80;;;;;;5015929;28;20041;-83
2022/09/04 09:12:16;;;;;;;6.93;2.63;;;26.80;64.20;;;;;;5032565;28;20049;-83
2022/09/04 09:15:20;;;;;;;5.40;2.35;;;26.90;63.40;;;;;;5015608;28;20114;-82
2022/09/04 09:18:30;;;;;;;2.95;2.10;;;26.90;64.30;;;;;;5016229;28;20164;-83
2022/09/04 09:21:07;;;;;;;5.22;3.20;;;26.90;65.30;;;;;;5015282;28;20038;-83
2022/09/04 09:23:48;;;;;;;12.57;9.32;;;27.00;63.10;;;;;;5031670;28;20507;-81
2022/09/04 09:26:29;;;;;;;4.47;2.60;;;27.00;64.90;;;;;;5015012;28;20049;-84
2022/09/04 09:29:27;;;;;;;3.70;2.45;;;26.90;65.60;;;;;;5015401;28;20562;-83
2022/09/04 09:32:40;;;;;;;3.80;2.55;;;26.90;64.20;;;;;;4999532;28;20092;-84
2022/09/04 09:35:46;;;;;;;3.20;2.10;;;27.00;64.20;;;;;;5015134;28;20107;-82
2022/09/04 09:38:36;;;;;;;5.57;2.53;;;27.30;63.80;;;;;;5031074;28;20041;-82
2022/09/04 09:41:40;;;;;;;3.47;1.98;;;27.50;62.40;;;;;;5030649;28;20377;-83
2022/09/04 09:44:50;;;;;;;5.22;2.28;;;27.70;61.40;;;;;;5031360;28;20061;-82
2022/09/04 09:47:57;;;;;;;3.83;2.13;;;27.70;61.60;;;;;;4977985;28;20115;-82
2022/09/04 09:50:53;;;;;;;2.53;2.17;;;27.70;60.20;;;;;;4972138;28;20084;-83
2022/09/04 09:53:31;;;;;;;4.63;1.77;;;27.70;62.60;;;;;;5013764;28;20041;-83
2022/09/04 09:56:47;;;;;;;4.03;1.65;;;27.80;62.10;;;;;;5013873;28;20077;-85
2022/09/04 09:59:22;;;;;;;2.95;2.13;;;28.10;61.70;;;;;;4973667;28;20053;-85
2022/09/04 10:02:07;;;;;;;4.05;1.98;;;28.30;61.60;;;;;;5020012;28;20484;-85
2022/09/04 10:04:53;;;;;;;3.83;1.75;;;28.50;59.80;;;;;;5018290;28;20439;-85
2022/09/04 10:07:41;;;;;;;3.15;2.15;;;28.60;60.00;;;;;;5030519;28;20038;-85
2022/09/04 10:10:25;;;;;;;4.10;1.95;;;28.60;59.30;;;;;;5030490;28;20045;-85
2022/09/04 10:13:21;;;;;;;2.13;1.67;;;28.50;59.50;;;;;;5013583;28;20045;-85
2022/09/04 10:16:18;;;;;;;3.67;1.75;;;28.20;60.40;;;;;;5029579;28;20124;-84
2022/09/04 10:19:03;;;;;;;4.03;1.65;;;27.90;59.60;;;;;;5030101;28;20045;-85
2022/09/04 10:21:49;;;;;;;4.00;1.55;;;27.80;62.40;;;;;;5013635;28;20041;-84
2022/09/04 10:24:36;;;;;;;2.90;2.05;;;27.70;60.90;;;;;;5013829;28;20052;-85
2022/09/04 10:27:21;;;;;;;3.35;1.83;;;27.60;60.80;;;;;;5013451;28;20049;-84
2022/09/04 10:30:05;;;;;;;5.05;2.95;;;27.50;61.20;;;;;;5029940;28;20122;-85
2022/09/04 10:32:31;;;;;;;4.68;2.08;;;27.50;62.80;;;;;;5013537;28;20600;-85
2022/09/04 10:35:15;;;;;;;2.95;2.13;;;27.50;61.90;;;;;;5013072;28;20400;-83
2022/09/04 10:38:02;;;;;;;3.45;2.15;;;27.50;61.50;;;;;;5013611;28;20041;-84
2022/09/04 10:40:42;;;;;;;2.92;1.70;;;27.50;61.20;;;;;;5013627;28;20056;-85
2022/09/04 10:43:37;;;;;;;3.90;1.88;;;27.30;62.40;;;;;;5029913;28;20038;-85
2022/09/04 10:46:05;;;;;;;4.68;2.22;;;27.40;62.10;;;;;;4994804;28;20049;-84
2022/09/04 10:49:10;;;;;;;3.67;2.05;;;27.30;62.40;;;;;;5013321;28;20091;-85
2022/09/04 10:52:13;;;;;;;2.20;2.00;;;27.40;62.80;;;;;;5030145;28;20407;-84
2022/09/04 10:55:13;;;;;;;4.28;2.65;;;27.50;62.20;;;;;;5014122;28;20045;-85
2022/09/04 10:58:00;;;;;;;2.25;1.80;;;27.50;62.30;;;;;;5001389;28;20057;-84
2022/09/04 11:00:46;;;;;;;3.58;2.00;;;27.50;62.40;;;;;;5031602;28;20041;-84
2022/09/04 11:03:42;;;;;;;2.25;1.60;;;27.50;61.80;;;;;;5033028;28;20041;-83
2022/09/04 11:06:38;;;;;;;2.40;1.77;;;27.50;62.00;;;;;;5020110;28;20446;-83
2022/09/04 11:09:27;;;;;;;3.85;1.73;;;27.50;62.60;;;;;;5019538;28;20078;-85
2022/09/04 11:12:14;;;;;;;1.85;1.63;;;27.60;62.20;;;;;;5022374;28;20182;-82
2022/09/04 11:14:43;;;;;;;2.00;1.73;;;27.60;61.90;;;;;;5020093;28;20042;-84
2022/09/04 11:17:33;;;;;;;5.13;1.77;;;27.70;62.00;;;;;;5022771;28;20047;-82
2022/09/04 11:20:23;;;;;;;1.95;1.60;;;27.60;62.40;;;;;;5025604;28;20090;-82
2022/09/04 11:23:28;;;;;;;2.15;1.65;;;27.60;62.50;;;;;;5022729;28;20213;-84
2022/09/04 11:26:04;;;;;;;2.33;1.60;;;27.60;63.40;;;;;;5034752;28;20771;-84
2022/09/04 11:28:50;;;;;;;3.72;1.67;;;27.70;62.80;;;;;;5020336;28;20045;-83
2022/09/04 11:31:33;;;;;;;4.07;1.70;;;27.70;62.30;;;;;;5018295;28;20049;-85
2022/09/04 11:34:01;;;;;;;1.67;1.33;;;27.70;62.70;;;;;;5016779;28;20077;-84
2022/09/04 11:37:07;;;;;;;2.95;1.80;;;27.70;62.60;;;;;;5018373;28;20076;-83
2022/09/04 11:39:46;;;;;;;2.30;1.60;;;27.90;62.20;;;;;;5020551;28;20033;-83
2022/09/04 11:42:21;;;;;;;4.57;1.50;;;27.90;64.00;;;;;;5023235;28;20115;-83
2022/09/04 11:45:07;;;;;;;2.83;1.65;;;27.90;62.00;;;;;;5040543;28;20519;-83
2022/09/04 11:47:53;;;;;;;4.28;1.48;;;28.10;61.60;;;;;;5018783;28;20048;-86
2022/09/04 11:51:00;;;;;;;3.25;1.70;;;28.20;61.70;;;;;;5034492;28;20429;-87
2022/09/04 11:53:59;;;;;;;2.72;1.55;;;28.10;60.30;;;;;;5016676;28;20484;-86
2022/09/04 11:56:49;;;;;;;5.35;1.67;;;28.10;62.10;;;;;;5033042;28;20424;-84
2022/09/04 11:59:51;;;;;;;2.30;1.45;;;28.10;62.00;;;;;;5034740;28;20179;-83
2022/09/04 12:02:44;;;;;;;1.42;1.27;;;28.20;59.70;;;;;;5016694;28;20132;-85
2022/09/04 12:05:44;;;;;;;3.03;1.50;;;28.10;61.90;;;;;;5016272;28;20042;-85
2022/09/04 12:08:36;;;;;;;2.58;1.73;;;28.00;62.10;;;;;;5033336;28;20507;-86
2022/09/04 12:11:18;;;;;;;4.40;1.77;;;28.00;61.90;;;;;;5016630;28;20041;-83
2022/09/04 12:14:18;;;;;;;2.25;1.77;;;28.00;61.40;;;;;;5033398;28;20648;-85
2022/09/04 12:17:22;;;;;;;1.45;1.35;;;28.20;60.80;;;;;;5032602;28;20041;-83
2022/09/04 12:19:53;;;;;;;5.18;1.58;;;28.30;61.10;;;;;;5015367;28;20047;-82
2022/09/04 12:22:39;;;;;;;;;;;28.30;60.60;;;;;;5032821;28;20091;-82
2022/09/04 12:25:23;;;;;;;1.90;1.52;;;28.30;61.50;;;;;;5030935;28;19959;-82
2022/09/04 12:28:33;;;;;;;3.72;1.60;;;28.20;60.40;;;;;;5032179;28;20041;-82
2022/09/04 12:31:17;;;;;;;2.53;1.75;;;28.30;60.60;;;;;;5015855;28;20042;-83
2022/09/04 12:34:09;;;;;;;2.90;1.60;;;28.30;61.50;;;;;;5031880;28;20694;-83
2022/09/04 12:36:50;;;;;;;2.75;1.85;;;28.40;61.20;;;;;;5015904;28;20033;-82
2022/09/04 12:39:35;;;;;;;;;;;28.50;60.20;;;;;;5029316;28;20045;-82
2022/09/04 12:42:01;;;;;;;1.80;1.60;;;28.40;63.10;;;;;;5025190;28;19948;-83
2022/09/04 12:44:57;;;;;;;2.10;1.60;;;28.40;60.70;;;;;;5015713;28;20099;-83
2022/09/04 12:47:40;;;;;;;1.60;1.50;;;28.50;61.70;;;;;;5014963;28;20050;-83
2022/09/04 12:50:21;;;;;;;2.58;1.45;;;28.70;60.90;;;;;;5031223;28;20080;-83
2022/09/04 12:52:56;;;;;;;3.22;1.58;;;28.80;61.60;;;;;;5028293;28;20068;-83
2022/09/04 12:56:04;;;;;;;2.70;1.70;;;29.00;60.80;;;;;;5002203;28;20072;-83
2022/09/04 12:58:41;;;;;;;2.90;1.83;;;29.10;60.20;;;;;;4975485;28;20579;-82
2022/09/04 13:01:14;;;;;;;2.95;1.48;;;29.20;60.00;;;;;;5028498;28;20061;-84
2022/09/04 13:03:47;;;;;;;2.83;1.80;;;29.30;58.90;;;;;;5026916;28;20041;-82
2022/09/04 13:06:28;;;;;;;1.95;1.58;;;29.30;58.90;;;;;;5017816;28;20444;-83
2022/09/04 13:09:11;;;;;;;5.10;1.60;;;29.10;58.80;;;;;;5025282;28;20037;-83
2022/09/04 13:11:55;;;;;;;2.58;1.60;;;28.90;60.60;;;;;;5021616;28;20301;-83
2022/09/04 13:14:46;;;;;;;3.35;1.70;;;28.70;59.60;;;;;;5022971;28;20488;-84
2022/09/04 13:17:27;;;;;;;3.60;1.70;;;28.60;58.90;;;;;;5006596;28;20041;-82
2022/09/04 13:20:03;;;;;;;;;;;28.40;59.50;;;;;;5009715;28;20065;-85
2022/09/04 13:22:40;;;;;;;3.15;1.85;;;28.30;64.50;;;;;;5021957;28;19928;-86
2022/09/04 13:25:31;;;;;;;5.07;1.70;;;28.30;62.50;;;;;;5001451;28;20053;-86
2022/09/04 13:28:29;;;;;;;2.70;2.00;;;28.30;62.20;;;;;;5009895;28;20045;-86
2022/09/04 13:31:25;;;;;;;3.40;1.80;;;28.30;61.70;;;;;;5007470;28;20049;-87
2022/09/04 13:34:03;;;;;;;3.95;1.90;;;28.40;60.60;;;;;;5010277;28;20041;-86
2022/09/04 13:36:53;;;;;;;4.72;2.72;;;28.40;60.80;;;;;;5023865;28;20037;-85
2022/09/04 13:39:42;;;;;;;2.33;1.67;;;28.40;60.60;;;;;;5024484;28;20460;-85
2022/09/04 13:42:24;;;;;;;3.30;1.52;;;28.50;60.80;;;;;;5022116;28;20163;-85
2022/09/04 13:45:14;;;;;;;3.00;1.83;;;28.60;59.90;;;;;;5023493;28;20052;-84
2022/09/04 13:47:56;;;;;;;3.25;2.05;;;28.50;58.90;;;;;;5024133;28;20563;-86
2022/09/04 13:50:31;;;;;;;4.15;2.28;;;28.50;59.70;;;;;;5024411;28;20423;-86
2022/09/04 13:53:05;;;;;;;2.72;1.88;;;28.50;59.80;;;;;;5018362;28;20046;-87
2022/09/04 13:55:40;;;;;;;2.97;1.98;;;28.60;59.20;;;;;;5007740;28;20053;-86
2022/09/04 13:58:20;;;;;;;3.70;1.88;;;28.70;59.50;;;;;;5023733;28;20404;-86
2022/09/04 14:00:59;;;;;;;2.20;2.00;;;28.70;58.40;;;;;;5013559;28;20033;-86
2022/09/04 14:03:39;;;;;;;2.13;1.70;;;28.70;58.50;;;;;;5032367;28;20045;-86
2022/09/04 14:06:09;;;;;;;2.63;1.70;;;28.60;59.50;;;;;;5033872;28;20326;-85
2022/09/04 14:08:36;;;;;;;5.03;1.92;;;28.60;59.90;;;;;;5007418;28;20037;-86
2022/09/04 14:11:39;;;;;;;6.47;2.00;;;28.60;61.00;;;;;;5010301;28;20095;-85
2022/09/04 14:14:20;;;;;;;2.83;2.58;;;28.50;59.20;;;;;;5025238;28;20049;-85
2022/09/04 14:16:48;;;;;;;3.53;2.75;;;28.50;58.70;;;;;;5025251;28;20029;-87
2022/09/04 14:19:31;;;;;;;2.80;2.00;;;28.40;58.80;;;;;;5025160;28;20041;-86
2022/09/04 14:22:05;;;;;;;3.30;3.00;;;28.30;59.50;;;;;;5024887;28;20041;-87
2022/09/04 14:24:57;;;;;;;4.53;2.70;;;28.30;59.40;;;;;;5009318;28;20061;-85
2022/09/04 14:27:23;;;;;;;2.70;1.92;;;28.30;60.60;;;;;;5020373;28;20081;-83
2022/09/04 14:30:08;;;;;;;2.55;2.05;;;28.30;59.80;;;;;;5008248;28;20088;-85
2022/09/04 14:33:02;;;;;;;2.28;1.90;;;28.20;59.70;;;;;;5009143;28;20396;-84